Time;durP1;ratioP1;P1;durP2;ratioP2;P2;SDS_P1;SDS_P2;PMS_P1;PMS_P2;Temp;Humidity;BMP_temperature;BMP_pressure;BME280_temperature;BME280_humidity;BME280_pressure;Samples;Min_cycle;Max_cycle;Signal;HPM_P1;HPM_P2
2021/06/17 00:01:14;;;;;;;3.08;1.73;;;;;;;;;;5085301;28;20137;-71
2021/06/17 00:03:40;;;;;;;4.82;2.03;;;;;;;;;;5072953;28;20066;-70
2021/06/17 00:06:06;;;;;;;4.60;1.98;;;;;;;;;;5079571;28;20048;-71
2021/06/17 00:08:32;;;;;;;3.05;1.90;;;;;;;;;;5090653;28;20028;-71
2021/06/17 00:10:58;;;;;;;3.83;1.95;;;;;;;;;;5074808;28;20017;-71
2021/06/17 00:13:26;;;;;;;2.50;1.90;;;;;;;;;;5072158;28;20033;-70
2021/06/17 00:15:55;;;;;;;4.28;2.55;;;;;;;;;;5092485;28;20028;-72
2021/06/17 00:18:21;;;;;;;4.82;2.60;;;;;;;;;;5092156;28;20023;-71
2021/06/17 00:20:48;;;;;;;4.38;1.60;;;;;;;;;;5089185;28;20451;-71
2021/06/17 00:23:15;;;;;;;5.10;2.08;;;;;;;;;;5094362;28;20028;-72
2021/06/17 00:25:41;;;;;;;3.85;1.83;;;;;;;;;;5087495;28;20036;-72
2021/06/17 00:28:08;;;;;;;5.63;2.35;;;;;;;;;;5074110;28;20044;-72
2021/06/17 00:30:34;;;;;;;3.53;2.15;;;;;;;;;;5083370;28;20024;-71
2021/06/17 00:33:00;;;;;;;3.30;2.22;;;;;;;;;;5070693;28;20078;-71
2021/06/17 00:35:29;;;;;;;3.13;2.15;;;;;;;;;;5073978;28;20081;-72
2021/06/17 00:37:55;;;;;;;4.55;2.10;;;;;;;;;;5088487;28;20042;-71
2021/06/17 00:40:22;;;;;;;4.57;2.15;;;;;;;;;;5086703;28;20028;-71
2021/06/17 00:42:49;;;;;;;3.70;2.70;;;;;;;;;;5110044;28;20031;-72
2021/06/17 00:45:19;;;;;;;4.70;2.33;;;;;;;;;;5108065;28;20107;-71
2021/06/17 00:47:45;;;;;;;3.28;2.03;;;;;;;;;;5083793;28;20481;-71
2021/06/17 00:50:12;;;;;;;3.72;2.00;;;;;;;;;;5082053;28;20081;-72
2021/06/17 00:52:39;;;;;;;4.03;1.83;;;;;;;;;;5103896;28;20072;-71
2021/06/17 00:55:05;;;;;;;5.65;2.33;;;;;;;;;;5111767;28;20691;-71
2021/06/17 00:57:31;;;;;;;4.15;2.00;;;;;;;;;;5077255;28;20398;-70
2021/06/17 00:59:58;;;;;;;4.53;2.30;;;;;;;;;;5073459;28;20032;-71
2021/06/17 01:02:24;;;;;;;4.15;2.00;;;;;;;;;;5069651;28;20043;-70
2021/06/17 01:04:50;;;;;;;3.22;1.90;;;;;;;;;;5083613;28;20156;-71
2021/06/17 01:07:20;;;;;;;5.15;2.45;;;;;;;;;;5084602;28;20044;-71
2021/06/17 01:10:10;;;;;;;4.78;1.90;;;;;;;;;;5088343;28;20031;-70
2021/06/17 01:12:45;;;;;;;6.32;2.05;;;;;;;;;;5082816;28;20048;-70
2021/06/17 01:15:13;;;;;;;4.68;2.10;;;;;;;;;;5080157;28;20047;-71
2021/06/17 01:17:43;;;;;;;4.90;2.13;;;;;;;;;;5087234;28;20169;-71
2021/06/17 01:20:30;;;;;;;3.55;2.30;;;;;;;;;;5079525;28;20395;-71
2021/06/17 01:23:13;;;;;;;3.47;2.03;;;;;;;;;;5102166;28;20034;-71
2021/06/17 01:25:58;;;;;;;4.93;2.63;;;;;;;;;;5077786;28;20031;-71
2021/06/17 01:28:24;;;;;;;5.13;2.10;;;;;;;;;;5112766;28;20027;-71
2021/06/17 01:30:55;;;;;;;5.60;2.13;;;;;;;;;;5104103;28;20115;-72
2021/06/17 01:33:23;;;;;;;3.30;2.20;;;;;;;;;;5083400;28;20455;-71
2021/06/17 01:35:49;;;;;;;4.63;1.95;;;;;;;;;;5087986;28;20034;-71
2021/06/17 01:38:18;;;;;;;3.63;2.17;;;;;;;;;;5087382;28;20087;-70
2021/06/17 01:40:45;;;;;;;3.17;2.00;;;;;;;;;;5080055;28;20621;-70
2021/06/17 01:43:12;;;;;;;6.13;2.20;;;;;;;;;;5089299;28;20077;-71
2021/06/17 01:45:38;;;;;;;5.90;2.83;;;;;;;;;;5081610;28;20058;-71
2021/06/17 01:48:06;;;;;;;2.50;2.00;;;;;;;;;;5086179;28;20032;-71
2021/06/17 01:50:33;;;;;;;2.58;1.85;;;;;;;;;;5080612;28;20372;-71
2021/06/17 01:52:59;;;;;;;2.08;1.75;;;;;;;;;;5099433;28;20371;-71
2021/06/17 01:55:33;;;;;;;3.83;2.05;;;;;;;;;;5108540;28;20031;-71
2021/06/17 01:58:01;;;;;;;5.72;2.25;;;;;;;;;;5082350;28;20028;-71
2021/06/17 02:00:27;;;;;;;2.78;1.92;;;;;;;;;;5071695;28;20099;-71
2021/06/17 02:02:54;;;;;;;4.13;1.90;;;;;;;;;;5077876;28;20436;-71
2021/06/17 02:05:22;;;;;;;4.30;1.70;;;;;;;;;;5075557;28;20028;-70
2021/06/17 02:07:50;;;;;;;3.22;1.90;;;;;;;;;;5084638;28;20503;-71
2021/06/17 02:10:18;;;;;;;3.75;2.40;;;;;;;;;;5087300;28;20048;-71
2021/06/17 02:12:44;;;;;;;3.58;2.10;;;;;;;;;;5074070;28;20377;-70
2021/06/17 02:15:11;;;;;;;3.75;1.90;;;;;;;;;;5076849;28;20146;-71
2021/06/17 02:17:38;;;;;;;2.10;1.90;;;;;;;;;;5083788;28;20028;-70
2021/06/17 02:20:06;;;;;;;4.53;2.30;;;;;;;;;;5071062;28;20020;-70
2021/06/17 02:22:33;;;;;;;2.50;2.00;;;;;;;;;;5101803;28;20047;-70
2021/06/17 02:24:59;;;;;;;3.80;2.13;;;;;;;;;;5114479;28;20118;-71
2021/06/17 02:27:31;;;;;;;3.50;2.30;;;;;;;;;;5087913;28;20037;-70
2021/06/17 02:30:02;;;;;;;2.78;1.65;;;;;;;;;;5072377;28;20052;-70
2021/06/17 02:32:28;;;;;;;3.47;2.05;;;;;;;;;;5072675;28;20418;-71
2021/06/17 02:34:55;;;;;;;3.20;1.80;;;;;;;;;;5089537;28;20032;-71
2021/06/17 02:37:22;;;;;;;4.93;2.03;;;;;;;;;;5090396;28;20115;-71
2021/06/17 02:39:49;;;;;;;3.42;2.13;;;;;;;;;;5082376;28;20040;-70
2021/06/17 02:42:17;;;;;;;5.60;2.30;;;;;;;;;;5073192;28;20157;-71
2021/06/17 02:44:43;;;;;;;2.33;1.83;;;;;;;;;;5072540;28;20029;-71
2021/06/17 02:47:10;;;;;;;7.53;2.30;;;;;;;;;;5086880;28;20035;-69
2021/06/17 02:49:38;;;;;;;4.97;2.30;;;;;;;;;;5076967;28;20044;-71
2021/06/17 02:52:04;;;;;;;4.10;2.53;;;;;;;;;;5076439;28;20479;-71
2021/06/17 02:54:30;;;;;;;3.72;1.75;;;;;;;;;;5074232;28;20036;-71
2021/06/17 02:57:04;;;;;;;5.82;2.22;;;;;;;;;;5119345;27;20076;-71
2021/06/17 02:59:45;;;;;;;3.63;2.55;;;;;;;;;;5115617;28;20030;-71
2021/06/17 03:02:16;;;;;;;4.43;1.83;;;;;;;;;;5098709;28;20079;-71
2021/06/17 03:05:18;;;;;;;8.50;2.72;;;;;;;;;;5093441;28;20101;-70
2021/06/17 03:07:58;;;;;;;2.58;2.38;;;;;;;;;;5088969;28;20059;-70
2021/06/17 03:10:25;;;;;;;8.52;2.38;;;;;;;;;;5073395;28;20044;-70
2021/06/17 03:12:52;;;;;;;4.68;2.10;;;;;;;;;;5055838;28;20032;-70
2021/06/17 03:15:18;;;;;;;3.45;1.92;;;;;;;;;;5055086;28;20107;-70
2021/06/17 03:17:46;;;;;;;4.10;1.90;;;;;;;;;;5054283;28;20784;-70
2021/06/17 03:20:14;;;;;;;5.13;2.38;;;;;;;;;;5068406;28;20101;-70
2021/06/17 03:22:46;;;;;;;9.20;2.58;;;;;;;;;;5060940;28;20029;-71
2021/06/17 03:25:13;;;;;;;5.05;1.95;;;;;;;;;;5054633;28;20128;-71
2021/06/17 03:27:41;;;;;;;3.25;2.22;;;;;;;;;;5081754;28;20029;-72
2021/06/17 03:30:07;;;;;;;4.78;2.10;;;;;;;;;;5054650;28;20052;-71
2021/06/17 03:32:35;;;;;;;2.90;2.00;;;;;;;;;;5051865;28;20059;-72
2021/06/17 03:35:02;;;;;;;2.40;2.13;;;;;;;;;;5055235;28;20028;-71
2021/06/17 03:37:28;;;;;;;4.45;1.90;;;;;;;;;;5052339;28;20033;-71
2021/06/17 03:39:55;;;;;;;11.15;3.70;;;;;;;;;;5059330;28;20558;-71
2021/06/17 03:42:22;;;;;;;4.78;2.20;;;;;;;;;;5054613;28;20048;-71
2021/06/17 03:44:49;;;;;;;6.40;2.03;;;;;;;;;;5051065;28;20036;-71
2021/06/17 03:47:16;;;;;;;6.50;2.53;;;;;;;;;;5054573;28;20036;-71
2021/06/17 03:49:43;;;;;;;4.32;2.20;;;;;;;;;;5074952;28;20592;-71
2021/06/17 03:52:09;;;;;;;4.95;2.10;;;;;;;;;;5055115;28;20024;-72
2021/06/17 03:54:35;;;;;;;8.57;2.20;;;;;;;;;;5055562;28;20117;-72
2021/06/17 03:57:04;;;;;;;4.75;2.30;;;;;;;;;;5060667;28;20025;-72
2021/06/17 03:59:32;;;;;;;4.47;2.25;;;;;;;;;;5062556;28;20488;-72
2021/06/17 04:01:58;;;;;;;3.63;1.90;;;;;;;;;;5065415;28;20116;-72
2021/06/17 04:04:24;;;;;;;7.72;2.92;;;;;;;;;;5058086;28;20036;-71
2021/06/17 04:06:54;;;;;;;4.75;2.10;;;;;;;;;;5058903;28;20097;-72
2021/06/17 04:09:27;;;;;;;6.90;2.35;;;;;;;;;;5070662;28;20040;-71
2021/06/17 04:11:56;;;;;;;4.50;2.50;;;;;;;;;;5074178;28;20028;-72
2021/06/17 04:14:23;;;;;;;12.15;2.80;;;;;;;;;;5078818;28;20032;-72
2021/06/17 04:16:51;;;;;;;3.30;2.00;;;;;;;;;;5086539;28;20031;-72
2021/06/17 04:19:20;;;;;;;4.68;2.20;;;;;;;;;;5089679;28;20028;-71
2021/06/17 04:21:47;;;;;;;3.90;1.70;;;;;;;;;;5091400;28;20679;-72
2021/06/17 04:24:16;;;;;;;5.32;2.25;;;;;;;;;;5114032;28;20031;-71
2021/06/17 04:26:42;;;;;;;8.00;1.95;;;;;;;;;;5103384;28;20036;-72
2021/06/17 04:29:08;;;;;;;3.38;1.98;;;;;;;;;;5093663;28;20062;-72
2021/06/17 04:31:35;;;;;;;4.50;1.90;;;;;;;;;;5078667;28;20032;-71
2021/06/17 04:34:02;;;;;;;2.83;2.00;;;;;;;;;;5074076;28;20570;-72
2021/06/17 04:36:29;;;;;;;5.88;1.98;;;;;;;;;;5071275;28;20059;-72
2021/06/17 04:38:55;;;;;;;3.55;2.10;;;;;;;;;;5094400;28;20027;-72
2021/06/17 04:41:21;;;;;;;6.63;2.22;;;;;;;;;;5111044;27;20027;-72
2021/06/17 04:43:47;;;;;;;5.72;2.20;;;;;;;;;;5088486;28;20444;-72
2021/06/17 04:46:14;;;;;;;4.00;1.98;;;;;;;;;;5086291;28;20080;-71
2021/06/17 04:48:42;;;;;;;4.32;1.80;;;;;;;;;;5077001;28;20059;-71
2021/06/17 04:51:10;;;;;;;2.08;1.85;;;;;;;;;;5090445;28;20030;-72
2021/06/17 04:53:36;;;;;;;7.10;2.10;;;;;;;;;;5112064;28;20049;-72
2021/06/17 04:56:02;;;;;;;3.95;2.00;;;;;;;;;;5102413;28;20036;-72
2021/06/17 04:58:29;;;;;;;5.28;2.50;;;;;;;;;;5069565;28;20112;-71
2021/06/17 05:00:55;;;;;;;3.05;1.85;;;;;;;;;;5072004;28;20448;-72
2021/06/17 05:03:21;;;;;;;3.92;1.80;;;;;;;;;;5075563;28;20060;-71
2021/06/17 05:05:49;;;;;;;4.40;1.65;;;;;;;;;;5094254;28;20549;-72
2021/06/17 05:11:00;;;;;;;5.40;2.20;;;;;;;;;;5078842;28;20034;-71
2021/06/17 05:13:28;;;;;;;6.20;2.78;;;;;;;;;;5074614;28;20034;-72
2021/06/17 05:15:55;;;;;;;8.38;2.10;;;;;;;;;;5076114;28;20032;-71
2021/06/17 05:18:24;;;;;;;2.47;1.80;;;;;;;;;;5077086;28;20067;-71
2021/06/17 05:20:51;;;;;;;5.07;2.00;;;;;;;;;;5074603;28;20029;-72
2021/06/17 05:23:20;;;;;;;3.10;2.17;;;;;;;;;;5075084;28;20042;-71
2021/06/17 05:25:47;;;;;;;3.35;1.77;;;;;;;;;;5069148;28;20131;-72
2021/06/17 05:28:17;;;;;;;7.60;1.92;;;;;;;;;;5069042;28;20034;-71
2021/06/17 05:30:44;;;;;;;6.20;2.35;;;;;;;;;;5073041;28;20024;-72
2021/06/17 05:33:10;;;;;;;4.05;2.00;;;;;;;;;;5077366;28;20668;-71
2021/06/17 05:35:36;;;;;;;7.90;2.17;;;;;;;;;;5069006;28;20028;-72
2021/06/17 05:38:03;;;;;;;5.55;2.20;;;;;;;;;;5081916;28;20028;-71
2021/06/17 05:40:29;;;;;;;3.33;1.90;;;;;;;;;;5088355;28;20020;-72
2021/06/17 05:42:55;;;;;;;6.35;1.88;;;;;;;;;;5076551;28;20039;-71
2021/06/17 05:45:21;;;;;;;3.10;2.00;;;;;;;;;;5069349;28;20032;-72
2021/06/17 05:47:48;;;;;;;4.78;2.35;;;;;;;;;;5067468;28;20805;-71
2021/06/17 05:50:14;;;;;;;4.90;2.22;;;;;;;;;;5072613;28;20056;-72
2021/06/17 05:52:40;;;;;;;3.97;1.80;;;;;;;;;;5068541;28;20024;-71
2021/06/17 05:55:07;;;;;;;5.47;1.90;;;;;;;;;;5069784;28;20032;-71
2021/06/17 05:57:33;;;;;;;2.72;2.05;;;;;;;;;;5071753;28;20080;-71
2021/06/17 05:59:59;;;;;;;2.42;1.80;;;;;;;;;;5072718;28;20036;-71
2021/06/17 06:02:25;;;;;;;2.75;1.80;;;;;;;;;;5100229;28;20598;-71
2021/06/17 06:04:54;;;;;;;3.65;1.70;;;;;;;;;;5092896;28;20076;-71
2021/06/17 06:07:20;;;;;;;7.68;2.20;;;;;;;;;;5091550;28;20032;-71
2021/06/17 06:09:46;;;;;;;8.15;2.05;;;;;;;;;;5091242;28;20035;-70
2021/06/17 06:12:14;;;;;;;9.05;3.30;;;;;;;;;;5088449;28;20472;-72
2021/06/17 06:14:40;;;;;;;4.28;2.10;;;;;;;;;;5072104;28;20750;-70
2021/06/17 06:17:06;;;;;;;5.20;2.00;;;;;;;;;;5085955;28;20027;-71
2021/06/17 06:19:35;;;;;;;5.57;2.17;;;;;;;;;;5081242;28;20439;-71
2021/06/17 06:22:01;;;;;;;2.20;1.90;;;;;;;;;;5087238;28;20023;-72
2021/06/17 06:24:28;;;;;;;4.13;2.17;;;;;;;;;;5091971;28;20028;-72
2021/06/17 06:26:58;;;;;;;10.13;2.08;;;;;;;;;;5094182;28;20126;-72
2021/06/17 06:29:24;;;;;;;5.05;2.10;;;;;;;;;;5095504;28;20028;-72
2021/06/17 06:31:50;;;;;;;5.28;2.50;;;;;;;;;;5095976;28;20035;-72
2021/06/17 06:34:16;;;;;;;5.82;1.98;;;;;;;;;;5096057;28;20024;-73
2021/06/17 06:36:43;;;;;;;6.03;2.03;;;;;;;;;;5095847;28;20059;-71
2021/06/17 06:39:09;;;;;;;5.15;2.25;;;;;;;;;;5095812;28;20093;-72
2021/06/17 06:41:35;;;;;;;7.35;2.10;;;;;;;;;;5095727;28;20024;-72
2021/06/17 06:44:02;;;;;;;5.80;1.92;;;;;;;;;;5095817;28;20028;-72
2021/06/17 06:46:28;;;;;;;5.88;2.22;;;;;;;;;;5088564;28;20115;-71
2021/06/17 06:48:54;;;;;;;4.40;2.28;;;;;;;;;;5075123;28;20025;-72
2021/06/17 06:51:20;;;;;;;5.07;2.60;;;;;;;;;;5075366;28;20063;-72
2021/06/17 06:53:47;;;;;;;3.90;2.03;;;;;;;;;;5075231;28;20062;-72
2021/06/17 06:56:13;;;;;;;8.27;3.20;;;;;;;;;;5075293;28;20502;-72
2021/06/17 06:58:39;;;;;;;6.93;3.28;;;;;;;;;;5079868;28;20534;-72
2021/06/17 07:01:05;;;;;;;6.28;3.38;;;;;;;;;;5085869;28;20472;-72
2021/06/17 07:03:31;;;;;;;6.70;2.70;;;;;;;;;;5091809;28;20685;-73
2021/06/17 07:05:57;;;;;;;6.57;3.28;;;;;;;;;;5085745;28;20032;-74
2021/06/17 07:08:23;;;;;;;7.60;3.17;;;;;;;;;;5083012;28;20033;-74
2021/06/17 07:10:49;;;;;;;10.13;2.20;;;;;;;;;;5081504;28;20382;-74
2021/06/17 07:13:16;;;;;;;5.72;2.65;;;;;;;;;;5077164;28;20031;-73
2021/06/17 07:15:42;;;;;;;6.78;2.33;;;;;;;;;;5077154;28;20028;-73
2021/06/17 07:18:09;;;;;;;5.25;2.85;;;;;;;;;;5083072;28;20051;-74
2021/06/17 07:20:35;;;;;;;4.80;2.47;;;;;;;;;;5087694;28;20024;-73
2021/06/17 07:23:01;;;;;;;5.47;2.78;;;;;;;;;;5088770;28;20035;-74
2021/06/17 07:25:28;;;;;;;6.10;2.65;;;;;;;;;;5078829;28;20020;-74
2021/06/17 07:27:54;;;;;;;7.65;2.35;;;;;;;;;;5082420;28;20159;-75
2021/06/17 07:30:21;;;;;;;4.45;2.42;;;;;;;;;;5071242;28;20025;-74
2021/06/17 07:32:47;;;;;;;4.68;2.47;;;;;;;;;;5083167;28;20044;-74
2021/06/17 07:35:13;;;;;;;4.60;2.35;;;;;;;;;;5085416;28;20020;-74
2021/06/17 07:37:40;;;;;;;6.68;3.58;;;;;;;;;;5078243;28;20035;-73
2021/06/17 07:40:07;;;;;;;5.82;2.28;;;;;;;;;;5084737;28;20100;-74
2021/06/17 07:42:33;;;;;;;3.75;2.63;;;;;;;;;;5089579;28;20478;-73
2021/06/17 07:44:59;;;;;;;7.78;2.47;;;;;;;;;;5089517;28;20040;-76
2021/06/17 07:47:25;;;;;;;4.35;2.05;;;;;;;;;;5087318;28;20072;-74
2021/06/17 07:49:51;;;;;;;2.90;2.00;;;;;;;;;;5088135;28;20024;-74
2021/06/17 07:52:18;;;;;;;9.30;2.30;;;;;;;;;;5079326;28;20024;-73
2021/06/17 07:54:44;;;;;;;6.40;2.22;;;;;;;;;;5078048;28;20048;-74
2021/06/17 07:57:10;;;;;;;5.82;2.17;;;;;;;;;;5076550;28;20051;-74
2021/06/17 07:59:36;;;;;;;4.57;1.90;;;;;;;;;;5082024;28;20395;-73
2021/06/17 08:02:03;;;;;;;6.65;2.00;;;;;;;;;;5085901;28;20032;-72
2021/06/17 08:04:30;;;;;;;4.90;1.90;;;;;;;;;;5079018;28;20024;-73
2021/06/17 08:06:56;;;;;;;2.90;1.85;;;;;;;;;;5096633;28;20059;-74
2021/06/17 08:09:23;;;;;;;2.90;1.92;;;;;;;;;;5079185;28;20028;-74
2021/06/17 08:11:50;;;;;;;4.22;2.00;;;;;;;;;;5074169;28;20028;-74
2021/06/17 08:14:24;;;;;;;4.80;1.88;;;;;;;;;;5076915;28;20032;-73
2021/06/17 08:16:50;;;;;;;3.67;1.90;;;;;;;;;;5070844;28;20048;-74
2021/06/17 08:19:16;;;;;;;3.72;1.95;;;;;;;;;;5077100;28;20111;-74
2021/06/17 08:21:43;;;;;;;5.50;2.55;;;;;;;;;;5076727;28;20095;-73
2021/06/17 08:24:09;;;;;;;4.88;2.00;;;;;;;;;;5086685;28;20042;-73
2021/06/17 08:26:35;;;;;;;2.58;1.80;;;;;;;;;;5071926;28;20044;-74
2021/06/17 08:29:02;;;;;;;5.05;2.20;;;;;;;;;;5076343;28;20103;-76
2021/06/17 08:31:28;;;;;;;6.50;2.20;;;;;;;;;;5082409;28;20762;-75
2021/06/17 08:33:55;;;;;;;4.72;2.20;;;;;;;;;;5079627;28;20034;-75
2021/06/17 08:36:21;;;;;;;3.03;1.90;;;;;;;;;;5075187;28;20032;-75
2021/06/17 08:38:47;;;;;;;3.90;1.80;;;;;;;;;;5073576;28;20032;-74
2021/06/17 08:41:13;;;;;;;5.05;1.83;;;;;;;;;;5070137;28;20042;-75
2021/06/17 08:43:39;;;;;;;3.47;1.60;;;;;;;;;;5075388;28;20107;-74
2021/06/17 08:46:05;;;;;;;4.55;1.90;;;;;;;;;;5076982;28;20089;-76
2021/06/17 08:48:32;;;;;;;2.70;2.13;;;;;;;;;;5068527;28;20119;-75
2021/06/17 08:50:58;;;;;;;2.58;1.90;;;;;;;;;;5083905;28;20039;-73
2021/06/17 08:53:24;;;;;;;2.17;1.77;;;;;;;;;;5088334;28;20029;-73
2021/06/17 08:55:51;;;;;;;4.20;2.20;;;;;;;;;;5080968;28;20078;-74
2021/06/17 08:58:17;;;;;;;5.75;1.88;;;;;;;;;;5076339;28;20127;-74
2021/06/17 09:00:47;;;;;;;5.30;1.85;;;;;;;;;;5082077;28;20053;-75
2021/06/17 09:03:17;;;;;;;6.05;2.40;;;;;;;;;;5081448;28;20028;-73
2021/06/17 09:05:46;;;;;;;4.90;2.13;;;;;;;;;;5088155;28;20064;-75
2021/06/17 09:08:15;;;;;;;4.32;2.00;;;;;;;;;;5087952;28;20040;-75
2021/06/17 09:10:42;;;;;;;4.07;2.10;;;;;;;;;;5087118;28;20044;-74
2021/06/17 09:13:09;;;;;;;4.25;2.60;;;;;;;;;;5080312;28;20024;-75
2021/06/17 09:15:41;;;;;;;3.83;2.33;;;;;;;;;;5083455;28;20039;-75
2021/06/17 09:18:11;;;;;;;4.68;2.40;;;;;;;;;;5071950;28;20107;-74
2021/06/17 09:20:37;;;;;;;4.30;2.40;;;;;;;;;;5081209;28;20031;-73
2021/06/17 09:23:24;;;;;;;5.05;2.30;;;;;;;;;;5074622;28;20460;-75
2021/06/17 09:25:54;;;;;;;6.07;3.05;;;;;;;;;;5083428;28;20054;-74
2021/06/17 09:28:20;;;;;;;5.30;2.55;;;;;;;;;;5083451;28;20850;-74
2021/06/17 09:30:47;;;;;;;8.18;2.20;;;;;;;;;;5069437;28;20039;-74
2021/06/17 09:33:13;;;;;;;4.38;2.10;;;;;;;;;;5082888;28;20733;-74
2021/06/17 09:35:53;;;;;;;4.30;2.50;;;;;;;;;;5089505;28;20040;-75
2021/06/17 09:38:19;;;;;;;4.10;2.30;;;;;;;;;;5072788;28;20099;-76
2021/06/17 09:40:47;;;;;;;5.30;2.63;;;;;;;;;;5072940;28;20037;-75
2021/06/17 09:43:13;;;;;;;3.67;2.70;;;;;;;;;;5071153;28;20051;-76
2021/06/17 09:45:40;;;;;;;3.10;2.10;;;;;;;;;;5075662;28;20020;-76
2021/06/17 09:48:06;;;;;;;2.83;2.35;;;;;;;;;;5095732;28;20459;-77
2021/06/17 09:50:32;;;;;;;2.85;2.15;;;;;;;;;;5080820;28;20096;-75
2021/06/17 09:52:58;;;;;;;8.82;2.33;;;;;;;;;;5080319;28;20052;-75
2021/06/17 09:55:38;;;;;;;2.47;2.20;;;;;;;;;;5088273;28;20510;-75
2021/06/17 09:58:04;;;;;;;3.60;2.30;;;;;;;;;;5085277;28;20506;-77
2021/06/17 10:00:30;;;;;;;3.47;1.95;;;;;;;;;;5075852;28;20089;-74
2021/06/17 10:03:13;;;;;;;6.22;2.20;;;;;;;;;;5077741;28;20035;-76
2021/06/17 10:05:39;;;;;;;3.78;2.00;;;;;;;;;;5080267;28;20032;-75
2021/06/17 10:08:05;;;;;;;6.35;2.00;;;;;;;;;;5074523;28;20048;-75
2021/06/17 10:10:35;;;;;;;4.32;2.13;;;;;;;;;;5069453;28;20051;-75
2021/06/17 10:13:03;;;;;;;5.00;2.20;;;;;;;;;;5073246;28;20021;-74
2021/06/17 10:15:29;;;;;;;4.20;2.03;;;;;;;;;;5077906;28;20099;-74
2021/06/17 10:17:55;;;;;;;6.70;2.30;;;;;;;;;;5076118;28;20032;-74
2021/06/17 10:20:22;;;;;;;3.35;2.00;;;;;;;;;;5072252;28;20032;-75
2021/06/17 10:22:52;;;;;;;4.35;2.08;;;;;;;;;;5072970;28;20024;-75
2021/06/17 10:25:26;;;;;;;4.88;1.88;;;;;;;;;;5074838;28;20124;-76
2021/06/17 10:27:57;;;;;;;2.88;1.85;;;;;;;;;;5074415;28;20086;-76
2021/06/17 10:30:37;;;;;;;4.75;2.10;;;;;;;;;;5075637;28;20028;-76
2021/06/17 10:33:04;;;;;;;5.97;1.98;;;;;;;;;;5081359;28;20437;-73
2021/06/17 10:35:31;;;;;;;3.70;1.77;;;;;;;;;;5084428;28;20107;-75
2021/06/17 10:38:00;;;;;;;3.30;1.90;;;;;;;;;;5068975;28;20562;-75
2021/06/17 10:40:28;;;;;;;3.47;1.95;;;;;;;;;;5075942;28;20027;-72
2021/06/17 10:42:56;;;;;;;2.97;2.00;;;;;;;;;;5071720;28;20073;-72
2021/06/17 10:45:28;;;;;;;5.57;1.90;;;;;;;;;;5081954;28;20032;-74
2021/06/17 10:47:56;;;;;;;3.15;1.83;;;;;;;;;;5073678;28;20027;-75
2021/06/17 10:50:24;;;;;;;3.67;2.15;;;;;;;;;;5081579;28;20024;-74
2021/06/17 10:52:54;;;;;;;4.20;2.50;;;;;;;;;;5078342;28;20039;-77
2021/06/17 10:55:21;;;;;;;5.70;1.90;;;;;;;;;;5082203;28;20068;-74
2021/06/17 10:57:49;;;;;;;5.72;2.25;;;;;;;;;;5082855;28;20111;-74
2021/06/17 11:00:30;;;;;;;4.82;2.20;;;;;;;;;;5087216;28;20702;-74
2021/06/17 11:03:02;;;;;;;5.93;2.35;;;;;;;;;;5077623;28;20024;-74
2021/06/17 11:05:31;;;;;;;3.28;1.83;;;;;;;;;;5081017;28;20112;-75
2021/06/17 11:08:12;;;;;;;3.38;2.20;;;;;;;;;;5088532;28;20582;-74
2021/06/17 11:10:58;;;;;;;3.83;2.20;;;;;;;;;;5079684;28;20165;-75
2021/06/17 11:13:42;;;;;;;2.65;1.80;;;;;;;;;;5072366;28;20086;-75
2021/06/17 11:16:14;;;;;;;4.20;2.00;;;;;;;;;;5082868;28;20425;-76
2021/06/17 11:18:45;;;;;;;3.03;1.90;;;;;;;;;;5084582;28;20060;-75
2021/06/17 11:21:24;;;;;;;4.97;2.05;;;;;;;;;;5085092;28;20395;-74
2021/06/17 11:23:52;;;;;;;5.68;2.33;;;;;;;;;;5103077;28;20431;-74
2021/06/17 11:26:36;;;;;;;3.97;1.98;;;;;;;;;;5073784;28;20105;-74
2021/06/17 11:29:04;;;;;;;2.75;1.92;;;;;;;;;;5081202;28;20081;-75
2021/06/17 11:31:37;;;;;;;3.83;2.47;;;;;;;;;;5077308;28;20028;-74
2021/06/17 11:34:03;;;;;;;4.65;1.92;;;;;;;;;;5073476;28;20071;-74
2021/06/17 11:36:29;;;;;;;3.53;2.20;;;;;;;;;;5077129;28;20052;-75
2021/06/17 11:39:01;;;;;;;3.00;2.35;;;;;;;;;;5091788;28;20112;-75
2021/06/17 11:41:30;;;;;;;3.25;2.28;;;;;;;;;;5086619;28;20025;-75
2021/06/17 11:44:06;;;;;;;3.22;2.28;;;;;;;;;;5071265;28;20052;-75
2021/06/17 11:46:35;;;;;;;3.55;2.90;;;;;;;;;;5080642;28;20035;-75
2021/06/17 11:49:03;;;;;;;4.60;2.60;;;;;;;;;;5088023;28;20125;-75
2021/06/17 11:51:46;;;;;;;6.43;3.45;;;;;;;;;;5081026;28;20129;-74
2021/06/17 11:54:20;;;;;;;5.72;2.63;;;;;;;;;;5073575;28;20028;-73
2021/06/17 11:56:47;;;;;;;4.70;2.25;;;;;;;;;;5083565;28;20386;-73
2021/06/17 11:59:16;;;;;;;2.45;2.25;;;;;;;;;;5082149;28;20036;-73
2021/06/17 12:02:02;;;;;;;5.68;2.40;;;;;;;;;;5076647;28;20028;-73
2021/06/17 12:05:01;;;;;;;2.67;1.90;;;;;;;;;;5086193;28;20050;-72
2021/06/17 12:07:35;;;;;;;3.08;2.08;;;;;;;;;;5092335;28;20047;-72
2021/06/17 12:10:19;;;;;;;6.07;2.35;;;;;;;;;;5089999;28;20549;-73
2021/06/17 12:12:50;;;;;;;3.83;2.30;;;;;;;;;;5070017;28;20040;-73
2021/06/17 12:15:18;;;;;;;5.03;2.13;;;;;;;;;;5071289;28;20057;-73
2021/06/17 12:17:46;;;;;;;3.75;2.15;;;;;;;;;;5070709;28;20028;-73
2021/06/17 12:20:12;;;;;;;4.53;2.25;;;;;;;;;;5070439;28;20036;-72
2021/06/17 12:22:40;;;;;;;4.03;2.33;;;;;;;;;;5070780;28;20029;-72
2021/06/17 12:25:06;;;;;;;2.88;2.10;;;;;;;;;;5070380;28;20036;-73
2021/06/17 12:27:33;;;;;;;3.67;2.35;;;;;;;;;;5070884;28;20032;-73
2021/06/17 12:30:18;;;;;;;4.28;2.30;;;;;;;;;;5079419;28;20177;-74
2021/06/17 12:32:44;;;;;;;3.25;2.10;;;;;;;;;;5085433;28;20044;-74
2021/06/17 12:35:11;;;;;;;4.03;2.40;;;;;;;;;;5082038;28;20028;-73
2021/06/17 12:37:54;;;;;;;3.50;2.00;;;;;;;;;;5071483;28;20098;-74
2021/06/17 12:40:27;;;;;;;3.17;2.30;;;;;;;;;;5075167;28;20055;-74
2021/06/17 12:43:02;;;;;;;3.97;2.25;;;;;;;;;;5070763;28;20494;-73
2021/06/17 12:45:28;;;;;;;6.30;2.50;;;;;;;;;;5077181;28;20055;-73
2021/06/17 12:47:55;;;;;;;3.38;2.53;;;;;;;;;;5075474;28;20020;-73
2021/06/17 12:53:09;;;;;;;3.40;2.38;;;;;;;;;;5075006;28;20055;-74
2021/06/17 12:55:37;;;;;;;4.93;2.42;;;;;;;;;;5078421;28;20033;-73
2021/06/17 12:58:03;;;;;;;4.18;2.53;;;;;;;;;;5073316;28;20031;-72
2021/06/17 13:00:29;;;;;;;4.82;2.22;;;;;;;;;;5078146;28;20110;-73
2021/06/17 13:02:55;;;;;;;5.30;2.10;;;;;;;;;;5087121;28;20032;-74
2021/06/17 13:05:22;;;;;;;2.63;2.17;;;;;;;;;;5077847;28;20025;-74
2021/06/17 13:07:58;;;;;;;4.00;2.20;;;;;;;;;;5078939;28;20040;-74
2021/06/17 13:10:25;;;;;;;3.97;2.22;;;;;;;;;;5074695;28;20035;-74
2021/06/17 13:12:52;;;;;;;4.28;2.28;;;;;;;;;;5077681;28;20020;-74
2021/06/17 13:15:28;;;;;;;6.30;2.50;;;;;;;;;;5080786;28;20099;-73
2021/06/17 13:18:05;;;;;;;3.97;2.70;;;;;;;;;;5081709;28;20386;-72
2021/06/17 13:20:33;;;;;;;2.80;2.20;;;;;;;;;;5084924;28;20032;-73
2021/06/17 13:23:00;;;;;;;6.78;2.40;;;;;;;;;;5081517;28;20032;-73
2021/06/17 13:25:30;;;;;;;3.20;2.15;;;;;;;;;;5082982;28;20036;-73
2021/06/17 13:27:56;;;;;;;5.25;2.10;;;;;;;;;;5084307;28;20024;-72
2021/06/17 13:30:23;;;;;;;3.47;2.17;;;;;;;;;;5085310;28;20025;-73
2021/06/17 13:32:50;;;;;;;4.50;2.20;;;;;;;;;;5087327;28;20102;-75
2021/06/17 13:35:16;;;;;;;2.75;2.00;;;;;;;;;;5083592;28;20542;-74
2021/06/17 13:37:42;;;;;;;4.03;2.08;;;;;;;;;;5085209;28;20172;-72
2021/06/17 13:40:08;;;;;;;5.93;2.20;;;;;;;;;;5083246;28;20394;-75
2021/06/17 13:42:34;;;;;;;3.00;2.15;;;;;;;;;;5082283;28;20440;-73
2021/06/17 13:45:00;;;;;;;5.57;2.22;;;;;;;;;;5083784;28;20028;-74
2021/06/17 13:47:26;;;;;;;3.13;2.08;;;;;;;;;;5085541;28;20074;-74
2021/06/17 13:49:53;;;;;;;4.38;2.22;;;;;;;;;;5085767;28;20035;-74
2021/06/17 13:52:19;;;;;;;5.72;2.53;;;;;;;;;;5086734;28;20027;-72
2021/06/17 13:54:45;;;;;;;3.95;2.47;;;;;;;;;;5085017;28;20016;-76
2021/06/17 13:57:13;;;;;;;3.45;2.22;;;;;;;;;;5086251;28;20580;-75
2021/06/17 13:59:39;;;;;;;3.97;2.40;;;;;;;;;;5081306;28;20501;-75
2021/06/17 14:02:06;;;;;;;4.15;2.30;;;;;;;;;;5086418;28;20162;-76
2021/06/17 14:04:32;;;;;;;2.75;2.20;;;;;;;;;;5085278;28;20032;-73
2021/06/17 14:06:59;;;;;;;5.70;2.10;;;;;;;;;;5088496;28;20052;-74
2021/06/17 14:09:25;;;;;;;5.78;2.35;;;;;;;;;;5084986;28;20034;-75
2021/06/17 14:11:51;;;;;;;4.40;2.67;;;;;;;;;;5088452;28;20028;-75
2021/06/17 14:14:17;;;;;;;3.83;2.38;;;;;;;;;;5084154;28;20064;-75
2021/06/17 14:16:43;;;;;;;5.15;2.55;;;;;;;;;;5086860;28;20036;-74
2021/06/17 14:19:09;;;;;;;4.03;2.28;;;;;;;;;;5085043;28;20035;-75
2021/06/17 14:21:35;;;;;;;2.78;2.10;;;;;;;;;;5083634;28;20056;-74
2021/06/17 14:24:01;;;;;;;2.97;1.92;;;;;;;;;;5084023;28;20029;-75
2021/06/17 14:26:27;;;;;;;4.15;1.90;;;;;;;;;;5087968;28;20076;-77
2021/06/17 14:28:53;;;;;;;5.55;2.20;;;;;;;;;;5088021;28;20491;-76
2021/06/17 14:31:19;;;;;;;3.08;1.83;;;;;;;;;;5081630;28;20040;-74
2021/06/17 14:33:46;;;;;;;4.55;2.30;;;;;;;;;;5087825;28;20032;-74
2021/06/17 14:36:12;;;;;;;5.82;2.05;;;;;;;;;;5089443;28;20024;-74
2021/06/17 14:38:39;;;;;;;3.60;2.00;;;;;;;;;;5086569;28;20038;-72
2021/06/17 14:41:05;;;;;;;4.13;2.30;;;;;;;;;;5091575;28;20028;-74
2021/06/17 14:43:31;;;;;;;3.13;2.03;;;;;;;;;;5086399;28;20504;-73
2021/06/17 14:45:57;;;;;;;5.53;2.20;;;;;;;;;;5090645;28;20027;-75
2021/06/17 14:48:23;;;;;;;3.33;2.00;;;;;;;;;;5085644;28;20081;-73
2021/06/17 14:50:50;;;;;;;4.05;2.10;;;;;;;;;;5084278;28;20445;-73
2021/06/17 14:53:16;;;;;;;3.28;2.13;;;;;;;;;;5088160;28;20477;-73
2021/06/17 14:55:42;;;;;;;2.92;1.92;;;;;;;;;;5091145;28;20749;-72